首页
METAR-TAF:

METAR-TAF

机场 :

Chanute, 堪薩斯州, 美国

纬度: 37-40-13N, 经度: 095-29-03W, 海拔: 305米

当前天气观测

该预报发布于38分钟前的18:52 UTC
风速10节,风向
温度 32°C
湿度 56%
气压 1013 hPa
能見度: 16.1公里
少量云层高于4800英尺
少量云层高于6000英尺

METAR: KCNU 151852Z AUTO 18010KT 10SM FEW048 FEW060 32/22 A2991 RMK AO2 SLP113 T03220222

时间: 14:30 (19:30 UTC)

预报

该预报发布于2小时和1分钟前的17:29 UTC
预报有效从15日的 18点(UTC)到 16日的 18点(UTC)
风速12节,风向
能見度: 10公里
少量云层高于24000英尺
从 16日的 0100点(UTC)
风速10节,风向
能見度: 10公里
少量云层高于11000英尺
从 16日的 1500点(UTC)
风速14节,风向,有时为23节阵风
能見度: 10公里
少量云层高于25000英尺

TAF: KCNU 151729Z 1518/1618 18012KT P6SM FEW240 FM160100 18010KT P6SM FEW110 FM161500 19014G23KT P6SM FEW250

超过4000个机场的气象观测和天气预报(METAR&TAF报告)。

可查询的气象台以黄色和红色小点在地图上表示。

将鼠标移到小点上方,可查看气象台名称。

然后点击查看天气观测和预报。

如需切换地图:点击带黑十字的绿色按钮放大地图;点击带横线的绿色按钮缩小地图;或者点击绿色箭头查看邻近地区的地图。


METAR-TAF: